sensor_id;sensor_type;location;lat;lon;timestamp;P1;durP1;ratioP1;P2;durP2;ratioP2
53961;SDS011;39868;53.398;6.564;2024-01-10T00:01:25;12.90;;;11.13;;
53961;SDS011;39868;53.398;6.564;2024-01-10T00:03:54;11.67;;;10.47;;
53961;SDS011;39868;53.398;6.564;2024-01-10T00:06:21;10.93;;;9.90;;
53961;SDS011;39868;53.398;6.564;2024-01-10T00:08:50;12.43;;;11.17;;
53961;SDS011;39868;53.398;6.564;2024-01-10T00:11:17;14.50;;;11.63;;
53961;SDS011;39868;53.398;6.564;2024-01-10T00:13:45;12.20;;;10.97;;
53961;SDS011;39868;53.398;6.564;2024-01-10T00:16:13;13.63;;;11.57;;
53961;SDS011;39868;53.398;6.564;2024-01-10T00:18:41;12.00;;;10.80;;
53961;SDS011;39868;53.398;6.564;2024-01-10T00:21:09;12.83;;;10.83;;
53961;SDS011;39868;53.398;6.564;2024-01-10T00:23:38;11.60;;;10.40;;
53961;SDS011;39868;53.398;6.564;2024-01-10T00:26:05;11.80;;;9.93;;
53961;SDS011;39868;53.398;6.564;2024-01-10T00:28:32;12.97;;;10.60;;
53961;SDS011;39868;53.398;6.564;2024-01-10T00:30:59;11.00;;;9.77;;
53961;SDS011;39868;53.398;6.564;2024-01-10T00:33:27;12.03;;;10.77;;
53961;SDS011;39868;53.398;6.564;2024-01-10T00:35:54;11.23;;;10.03;;
53961;SDS011;39868;53.398;6.564;2024-01-10T00:38:22;10.87;;;9.60;;
53961;SDS011;39868;53.398;6.564;2024-01-10T00:40:49;13.37;;;11.07;;
53961;SDS011;39868;53.398;6.564;2024-01-10T00:43:16;12.03;;;10.30;;
53961;SDS011;39868;53.398;6.564;2024-01-10T00:45:44;10.60;;;9.50;;
53961;SDS011;39868;53.398;6.564;2024-01-10T00:48:11;13.03;;;11.43;;
53961;SDS011;39868;53.398;6.564;2024-01-10T00:50:39;13.47;;;10.87;;
53961;SDS011;39868;53.398;6.564;2024-01-10T00:53:06;13.37;;;11.23;;
53961;SDS011;39868;53.398;6.564;2024-01-10T00:55:34;11.73;;;10.53;;
53961;SDS011;39868;53.398;6.564;2024-01-10T00:58:01;12.80;;;11.50;;
53961;SDS011;39868;53.398;6.564;2024-01-10T01:00:28;14.87;;;11.93;;
53961;SDS011;39868;53.398;6.564;2024-01-10T01:02:55;16.30;;;11.80;;
53961;SDS011;39868;53.398;6.564;2024-01-10T01:05:23;15.13;;;12.47;;
53961;SDS011;39868;53.398;6.564;2024-01-10T01:07:50;15.70;;;11.23;;
53961;SDS011;39868;53.398;6.564;2024-01-10T01:10:17;13.27;;;11.30;;
53961;SDS011;39868;53.398;6.564;2024-01-10T01:12:45;13.13;;;11.43;;
53961;SDS011;39868;53.398;6.564;2024-01-10T01:15:13;12.87;;;11.57;;
53961;SDS011;39868;53.398;6.564;2024-01-10T01:17:40;12.27;;;11.00;;
53961;SDS011;39868;53.398;6.564;2024-01-10T01:20:07;14.90;;;10.50;;
53961;SDS011;39868;53.398;6.564;2024-01-10T01:22:36;13.33;;;10.93;;
53961;SDS011;39868;53.398;6.564;2024-01-10T01:25:03;13.63;;;10.63;;
53961;SDS011;39868;53.398;6.564;2024-01-10T01:27:30;12.93;;;11.37;;
53961;SDS011;39868;53.398;6.564;2024-01-10T01:29:58;12.83;;;11.37;;
53961;SDS011;39868;53.398;6.564;2024-01-10T01:32:25;13.23;;;11.50;;
53961;SDS011;39868;53.398;6.564;2024-01-10T01:34:52;11.63;;;10.53;;
53961;SDS011;39868;53.398;6.564;2024-01-10T01:37:19;13.37;;;11.80;;
53961;SDS011;39868;53.398;6.564;2024-01-10T01:39:47;13.27;;;11.20;;
53961;SDS011;39868;53.398;6.564;2024-01-10T01:42:14;13.00;;;11.67;;
53961;SDS011;39868;53.398;6.564;2024-01-10T01:44:42;14.70;;;11.93;;
53961;SDS011;39868;53.398;6.564;2024-01-10T01:47:09;14.53;;;11.63;;
53961;SDS011;39868;53.398;6.564;2024-01-10T01:49:37;11.93;;;10.73;;
53961;SDS011;39868;53.398;6.564;2024-01-10T01:52:05;15.20;;;11.17;;
53961;SDS011;39868;53.398;6.564;2024-01-10T01:54:33;14.13;;;11.63;;
53961;SDS011;39868;53.398;6.564;2024-01-10T01:57:01;13.73;;;12.33;;
53961;SDS011;39868;53.398;6.564;2024-01-10T01:59:29;17.00;;;11.63;;
53961;SDS011;39868;53.398;6.564;2024-01-10T02:01:56;13.60;;;12.20;;
53961;SDS011;39868;53.398;6.564;2024-01-10T02:04:27;15.93;;;11.70;;
53961;SDS011;39868;53.398;6.564;2024-01-10T02:06:57;12.73;;;11.40;;
53961;SDS011;39868;53.398;6.564;2024-01-10T02:09:24;12.77;;;10.13;;
53961;SDS011;39868;53.398;6.564;2024-01-10T02:11:52;16.27;;;12.27;;
53961;SDS011;39868;53.398;6.564;2024-01-10T02:14:20;12.73;;;10.70;;
53961;SDS011;39868;53.398;6.564;2024-01-10T02:16:48;15.63;;;11.73;;
53961;SDS011;39868;53.398;6.564;2024-01-10T02:19:22;14.40;;;11.53;;
53961;SDS011;39868;53.398;6.564;2024-01-10T02:21:50;18.77;;;11.23;;
53961;SDS011;39868;53.398;6.564;2024-01-10T02:24:17;12.97;;;11.50;;
53961;SDS011;39868;53.398;6.564;2024-01-10T02:26:45;13.87;;;11.67;;
53961;SDS011;39868;53.398;6.564;2024-01-10T02:29:13;15.13;;;12.57;;
53961;SDS011;39868;53.398;6.564;2024-01-10T02:31:40;12.43;;;10.57;;
53961;SDS011;39868;53.398;6.564;2024-01-10T02:34:07;12.53;;;11.23;;
53961;SDS011;39868;53.398;6.564;2024-01-10T02:36:35;12.43;;;11.07;;
53961;SDS011;39868;53.398;6.564;2024-01-10T02:39:02;12.93;;;11.23;;
53961;SDS011;39868;53.398;6.564;2024-01-10T02:41:29;17.97;;;10.37;;
53961;SDS011;39868;53.398;6.564;2024-01-10T02:43:57;14.63;;;11.50;;
53961;SDS011;39868;53.398;6.564;2024-01-10T02:46:26;14.43;;;10.73;;
53961;SDS011;39868;53.398;6.564;2024-01-10T02:48:55;13.70;;;11.37;;
53961;SDS011;39868;53.398;6.564;2024-01-10T02:51:23;12.67;;;10.47;;
53961;SDS011;39868;53.398;6.564;2024-01-10T02:53:54;15.53;;;10.63;;
53961;SDS011;39868;53.398;6.564;2024-01-10T02:56:22;14.43;;;10.83;;
53961;SDS011;39868;53.398;6.564;2024-01-10T02:58:49;13.10;;;10.33;;
53961;SDS011;39868;53.398;6.564;2024-01-10T03:01:16;16.20;;;10.37;;
53961;SDS011;39868;53.398;6.564;2024-01-10T03:03:43;13.10;;;10.63;;
53961;SDS011;39868;53.398;6.564;2024-01-10T03:06:11;12.57;;;10.07;;
53961;SDS011;39868;53.398;6.564;2024-01-10T03:08:38;12.03;;;10.87;;
53961;SDS011;39868;53.398;6.564;2024-01-10T03:11:05;11.70;;;10.43;;
53961;SDS011;39868;53.398;6.564;2024-01-10T03:13:33;12.63;;;11.30;;
53961;SDS011;39868;53.398;6.564;2024-01-10T03:16:00;12.90;;;11.37;;
53961;SDS011;39868;53.398;6.564;2024-01-10T03:18:27;13.03;;;10.23;;
53961;SDS011;39868;53.398;6.564;2024-01-10T03:20:55;10.90;;;9.77;;
53961;SDS011;39868;53.398;6.564;2024-01-10T03:23:22;11.77;;;10.50;;
53961;SDS011;39868;53.398;6.564;2024-01-10T03:25:49;11.50;;;10.40;;
53961;SDS011;39868;53.398;6.564;2024-01-10T03:28:17;14.87;;;10.87;;
53961;SDS011;39868;53.398;6.564;2024-01-10T03:30:44;12.10;;;10.67;;
53961;SDS011;39868;53.398;6.564;2024-01-10T03:33:12;14.33;;;11.77;;
53961;SDS011;39868;53.398;6.564;2024-01-10T03:35:39;12.23;;;10.60;;
53961;SDS011;39868;53.398;6.564;2024-01-10T03:38:06;13.50;;;10.60;;
53961;SDS011;39868;53.398;6.564;2024-01-10T03:40:34;12.17;;;10.40;;
53961;SDS011;39868;53.398;6.564;2024-01-10T03:43:01;13.10;;;10.23;;
53961;SDS011;39868;53.398;6.564;2024-01-10T03:45:28;12.17;;;10.97;;
53961;SDS011;39868;53.398;6.564;2024-01-10T03:47:56;12.80;;;11.07;;
53961;SDS011;39868;53.398;6.564;2024-01-10T03:50:23;13.57;;;10.30;;
53961;SDS011;39868;53.398;6.564;2024-01-10T03:52:50;11.50;;;10.33;;
53961;SDS011;39868;53.398;6.564;2024-01-10T03:55:18;16.17;;;10.97;;
53961;SDS011;39868;53.398;6.564;2024-01-10T03:57:45;12.30;;;11.00;;
53961;SDS011;39868;53.398;6.564;2024-01-10T04:00:12;13.93;;;10.77;;
53961;SDS011;39868;53.398;6.564;2024-01-10T04:02:40;13.27;;;11.00;;
53961;SDS011;39868;53.398;6.564;2024-01-10T04:05:10;14.57;;;11.00;;
53961;SDS011;39868;53.398;6.564;2024-01-10T04:07:39;15.50;;;11.83;;
53961;SDS011;39868;53.398;6.564;2024-01-10T04:10:10;13.83;;;10.90;;
53961;SDS011;39868;53.398;6.564;2024-01-10T04:12:40;13.20;;;11.43;;
53961;SDS011;39868;53.398;6.564;2024-01-10T04:15:09;12.60;;;11.30;;
53961;SDS011;39868;53.398;6.564;2024-01-10T04:17:37;13.53;;;11.37;;
53961;SDS011;39868;53.398;6.564;2024-01-10T04:20:05;12.87;;;10.93;;
53961;SDS011;39868;53.398;6.564;2024-01-10T04:22:33;14.87;;;10.83;;
53961;SDS011;39868;53.398;6.564;2024-01-10T04:25:01;11.60;;;10.40;;
53961;SDS011;39868;53.398;6.564;2024-01-10T04:27:31;11.60;;;10.40;;
53961;SDS011;39868;53.398;6.564;2024-01-10T04:29:58;11.30;;;10.30;;
53961;SDS011;39868;53.398;6.564;2024-01-10T04:32:26;12.40;;;11.20;;
53961;SDS011;39868;53.398;6.564;2024-01-10T04:34:53;13.53;;;11.63;;
53961;SDS011;39868;53.398;6.564;2024-01-10T04:37:21;13.83;;;11.23;;
53961;SDS011;39868;53.398;6.564;2024-01-10T04:39:49;14.33;;;11.17;;
53961;SDS011;39868;53.398;6.564;2024-01-10T04:42:16;12.87;;;11.43;;
53961;SDS011;39868;53.398;6.564;2024-01-10T04:44:43;13.23;;;11.17;;
53961;SDS011;39868;53.398;6.564;2024-01-10T04:47:11;13.40;;;11.77;;
53961;SDS011;39868;53.398;6.564;2024-01-10T04:49:38;15.73;;;11.17;;
53961;SDS011;39868;53.398;6.564;2024-01-10T04:52:05;16.77;;;12.20;;
53961;SDS011;39868;53.398;6.564;2024-01-10T04:54:33;12.83;;;11.47;;
53961;SDS011;39868;53.398;6.564;2024-01-10T04:57:00;13.40;;;11.97;;
53961;SDS011;39868;53.398;6.564;2024-01-10T04:59:28;14.13;;;12.77;;
53961;SDS011;39868;53.398;6.564;2024-01-10T05:01:55;14.20;;;12.50;;
53961;SDS011;39868;53.398;6.564;2024-01-10T05:04:22;18.40;;;13.07;;
53961;SDS011;39868;53.398;6.564;2024-01-10T05:06:50;14.80;;;11.70;;
53961;SDS011;39868;53.398;6.564;2024-01-10T05:09:17;13.57;;;12.17;;
53961;SDS011;39868;53.398;6.564;2024-01-10T05:11:44;13.30;;;11.90;;
53961;SDS011;39868;53.398;6.564;2024-01-10T05:16:48;13.67;;;12.10;;
53961;SDS011;39868;53.398;6.564;2024-01-10T05:19:15;16.07;;;12.40;;
53961;SDS011;39868;53.398;6.564;2024-01-10T05:21:43;12.87;;;11.47;;
53961;SDS011;39868;53.398;6.564;2024-01-10T05:24:10;16.27;;;11.87;;
53961;SDS011;39868;53.398;6.564;2024-01-10T05:26:38;13.97;;;11.73;;
53961;SDS011;39868;53.398;6.564;2024-01-10T05:29:05;13.57;;;12.13;;
53961;SDS011;39868;53.398;6.564;2024-01-10T05:31:32;15.80;;;10.90;;
53961;SDS011;39868;53.398;6.564;2024-01-10T05:33:59;14.30;;;11.57;;
53961;SDS011;39868;53.398;6.564;2024-01-10T05:36:27;13.93;;;11.50;;
53961;SDS011;39868;53.398;6.564;2024-01-10T05:38:54;15.43;;;11.67;;
53961;SDS011;39868;53.398;6.564;2024-01-10T05:41:21;14.13;;;12.20;;
53961;SDS011;39868;53.398;6.564;2024-01-10T05:43:49;15.33;;;12.50;;
53961;SDS011;39868;53.398;6.564;2024-01-10T05:46:16;13.87;;;12.20;;
53961;SDS011;39868;53.398;6.564;2024-01-10T05:48:43;15.13;;;11.77;;
53961;SDS011;39868;53.398;6.564;2024-01-10T05:51:11;14.90;;;11.50;;
53961;SDS011;39868;53.398;6.564;2024-01-10T05:53:38;12.83;;;11.00;;
53961;SDS011;39868;53.398;6.564;2024-01-10T05:56:06;14.87;;;12.50;;
53961;SDS011;39868;53.398;6.564;2024-01-10T05:58:34;13.93;;;12.07;;
53961;SDS011;39868;53.398;6.564;2024-01-10T06:01:02;13.10;;;11.73;;
53961;SDS011;39868;53.398;6.564;2024-01-10T06:03:30;15.03;;;12.03;;
53961;SDS011;39868;53.398;6.564;2024-01-10T06:05:57;16.73;;;12.77;;
53961;SDS011;39868;53.398;6.564;2024-01-10T06:08:24;13.27;;;10.97;;
53961;SDS011;39868;53.398;6.564;2024-01-10T06:10:52;17.53;;;11.73;;
53961;SDS011;39868;53.398;6.564;2024-01-10T06:13:19;17.70;;;12.43;;
53961;SDS011;39868;53.398;6.564;2024-01-10T06:15:47;14.03;;;11.40;;
53961;SDS011;39868;53.398;6.564;2024-01-10T06:18:14;23.83;;;13.10;;
53961;SDS011;39868;53.398;6.564;2024-01-10T06:20:41;14.87;;;12.57;;
53961;SDS011;39868;53.398;6.564;2024-01-10T06:23:08;18.23;;;12.33;;
53961;SDS011;39868;53.398;6.564;2024-01-10T06:25:36;17.03;;;12.70;;
53961;SDS011;39868;53.398;6.564;2024-01-10T06:28:03;15.30;;;12.50;;
53961;SDS011;39868;53.398;6.564;2024-01-10T06:30:31;14.67;;;12.20;;
53961;SDS011;39868;53.398;6.564;2024-01-10T06:32:58;17.27;;;12.60;;
53961;SDS011;39868;53.398;6.564;2024-01-10T06:35:26;15.27;;;12.43;;
53961;SDS011;39868;53.398;6.564;2024-01-10T06:37:53;13.00;;;11.60;;
53961;SDS011;39868;53.398;6.564;2024-01-10T06:40:21;15.40;;;12.10;;
53961;SDS011;39868;53.398;6.564;2024-01-10T06:42:48;16.70;;;12.87;;
53961;SDS011;39868;53.398;6.564;2024-01-10T06:45:16;16.07;;;12.17;;
53961;SDS011;39868;53.398;6.564;2024-01-10T06:47:43;18.63;;;12.97;;
53961;SDS011;39868;53.398;6.564;2024-01-10T06:50:10;18.73;;;12.80;;
53961;SDS011;39868;53.398;6.564;2024-01-10T06:52:38;16.73;;;13.13;;
53961;SDS011;39868;53.398;6.564;2024-01-10T06:55:07;17.40;;;13.20;;
53961;SDS011;39868;53.398;6.564;2024-01-10T06:57:34;17.93;;;12.73;;
53961;SDS011;39868;53.398;6.564;2024-01-10T07:00:02;16.93;;;13.37;;
53961;SDS011;39868;53.398;6.564;2024-01-10T07:02:33;19.57;;;13.80;;
53961;SDS011;39868;53.398;6.564;2024-01-10T07:05:06;14.70;;;12.77;;
53961;SDS011;39868;53.398;6.564;2024-01-10T07:07:34;17.65;;;12.70;;
53961;SDS011;39868;53.398;6.564;2024-01-10T07:10:02;17.27;;;12.63;;
53961;SDS011;39868;53.398;6.564;2024-01-10T07:12:33;18.73;;;14.07;;
53961;SDS011;39868;53.398;6.564;2024-01-10T07:15:00;17.87;;;12.10;;
53961;SDS011;39868;53.398;6.564;2024-01-10T07:17:29;15.67;;;11.90;;
53961;SDS011;39868;53.398;6.564;2024-01-10T07:19:57;16.60;;;12.17;;
53961;SDS011;39868;53.398;6.564;2024-01-10T07:22:24;12.70;;;11.50;;
53961;SDS011;39868;53.398;6.564;2024-01-10T07:24:52;13.87;;;12.23;;
53961;SDS011;39868;53.398;6.564;2024-01-10T07:27:19;17.50;;;12.03;;
53961;SDS011;39868;53.398;6.564;2024-01-10T07:29:46;18.00;;;12.70;;
53961;SDS011;39868;53.398;6.564;2024-01-10T07:32:15;12.37;;;11.07;;
53961;SDS011;39868;53.398;6.564;2024-01-10T07:34:42;15.53;;;11.40;;
53961;SDS011;39868;53.398;6.564;2024-01-10T07:37:11;14.40;;;11.80;;
53961;SDS011;39868;53.398;6.564;2024-01-10T07:39:40;11.77;;;10.30;;
53961;SDS011;39868;53.398;6.564;2024-01-10T07:42:07;15.30;;;11.87;;
53961;SDS011;39868;53.398;6.564;2024-01-10T07:44:34;14.70;;;11.30;;
53961;SDS011;39868;53.398;6.564;2024-01-10T07:47:01;12.00;;;10.80;;
53961;SDS011;39868;53.398;6.564;2024-01-10T07:49:29;16.83;;;13.00;;
53961;SDS011;39868;53.398;6.564;2024-01-10T07:51:57;17.57;;;12.50;;
53961;SDS011;39868;53.398;6.564;2024-01-10T07:54:24;16.20;;;12.17;;
53961;SDS011;39868;53.398;6.564;2024-01-10T07:56:52;13.23;;;11.17;;
53961;SDS011;39868;53.398;6.564;2024-01-10T07:59:21;13.97;;;11.93;;
53961;SDS011;39868;53.398;6.564;2024-01-10T08:01:55;13.73;;;10.60;;
53961;SDS011;39868;53.398;6.564;2024-01-10T08:04:24;13.80;;;11.23;;
53961;SDS011;39868;53.398;6.564;2024-01-10T08:06:52;13.57;;;10.37;;
53961;SDS011;39868;53.398;6.564;2024-01-10T08:09:20;15.00;;;11.83;;
53961;SDS011;39868;53.398;6.564;2024-01-10T08:11:48;14.93;;;10.73;;
53961;SDS011;39868;53.398;6.564;2024-01-10T08:14:15;15.70;;;11.57;;
53961;SDS011;39868;53.398;6.564;2024-01-10T08:16:43;17.40;;;11.80;;
53961;SDS011;39868;53.398;6.564;2024-01-10T08:19:14;15.50;;;11.77;;
53961;SDS011;39868;53.398;6.564;2024-01-10T08:21:41;13.50;;;11.17;;
53961;SDS011;39868;53.398;6.564;2024-01-10T08:24:09;15.33;;;10.77;;
53961;SDS011;39868;53.398;6.564;2024-01-10T08:26:36;21.23;;;12.10;;
53961;SDS011;39868;53.398;6.564;2024-01-10T08:29:04;13.67;;;10.87;;
53961;SDS011;39868;53.398;6.564;2024-01-10T08:31:31;17.57;;;12.33;;
53961;SDS011;39868;53.398;6.564;2024-01-10T08:33:59;19.53;;;10.67;;
53961;SDS011;39868;53.398;6.564;2024-01-10T08:36:26;17.27;;;10.33;;
53961;SDS011;39868;53.398;6.564;2024-01-10T08:38:53;15.37;;;10.57;;
53961;SDS011;39868;53.398;6.564;2024-01-10T08:41:21;15.13;;;10.17;;
53961;SDS011;39868;53.398;6.564;2024-01-10T08:43:48;16.90;;;11.70;;
53961;SDS011;39868;53.398;6.564;2024-01-10T08:46:16;13.27;;;10.87;;
53961;SDS011;39868;53.398;6.564;2024-01-10T08:48:43;21.50;;;11.30;;
53961;SDS011;39868;53.398;6.564;2024-01-10T08:51:11;17.43;;;10.93;;
53961;SDS011;39868;53.398;6.564;2024-01-10T08:53:39;21.67;;;10.80;;
53961;SDS011;39868;53.398;6.564;2024-01-10T08:56:06;16.27;;;10.83;;
53961;SDS011;39868;53.398;6.564;2024-01-10T08:58:34;14.83;;;10.93;;
53961;SDS011;39868;53.398;6.564;2024-01-10T09:01:01;15.97;;;9.73;;
53961;SDS011;39868;53.398;6.564;2024-01-10T09:03:29;16.80;;;10.57;;
53961;SDS011;39868;53.398;6.564;2024-01-10T09:05:56;15.07;;;9.70;;
53961;SDS011;39868;53.398;6.564;2024-01-10T09:08:36;17.27;;;10.50;;
53961;SDS011;39868;53.398;6.564;2024-01-10T09:11:06;15.40;;;9.83;;
53961;SDS011;39868;53.398;6.564;2024-01-10T09:13:33;15.17;;;9.20;;
53961;SDS011;39868;53.398;6.564;2024-01-10T09:16:01;15.43;;;10.63;;
53961;SDS011;39868;53.398;6.564;2024-01-10T09:18:28;13.83;;;10.57;;
53961;SDS011;39868;53.398;6.564;2024-01-10T09:20:56;13.93;;;9.93;;
53961;SDS011;39868;53.398;6.564;2024-01-10T09:23:23;15.03;;;10.10;;
53961;SDS011;39868;53.398;6.564;2024-01-10T09:25:54;15.27;;;10.63;;
53961;SDS011;39868;53.398;6.564;2024-01-10T09:28:21;15.57;;;10.17;;
53961;SDS011;39868;53.398;6.564;2024-01-10T09:30:48;12.10;;;9.17;;
53961;SDS011;39868;53.398;6.564;2024-01-10T09:33:18;18.07;;;10.17;;
53961;SDS011;39868;53.398;6.564;2024-01-10T09:35:45;14.27;;;8.87;;
53961;SDS011;39868;53.398;6.564;2024-01-10T09:38:13;14.03;;;8.40;;
53961;SDS011;39868;53.398;6.564;2024-01-10T09:40:40;14.40;;;9.97;;
53961;SDS011;39868;53.398;6.564;2024-01-10T09:43:09;16.33;;;9.97;;
53961;SDS011;39868;53.398;6.564;2024-01-10T09:45:38;18.27;;;9.30;;
53961;SDS011;39868;53.398;6.564;2024-01-10T09:48:13;14.60;;;9.97;;
53961;SDS011;39868;53.398;6.564;2024-01-10T09:50:42;16.60;;;9.53;;
53961;SDS011;39868;53.398;6.564;2024-01-10T09:53:11;15.50;;;9.33;;
53961;SDS011;39868;53.398;6.564;2024-01-10T09:55:46;14.23;;;9.73;;
53961;SDS011;39868;53.398;6.564;2024-01-10T09:58:14;14.23;;;10.10;;
53961;SDS011;39868;53.398;6.564;2024-01-10T10:00:41;10.77;;;9.20;;
53961;SDS011;39868;53.398;6.564;2024-01-10T10:03:09;14.03;;;10.03;;
53961;SDS011;39868;53.398;6.564;2024-01-10T10:05:39;12.83;;;9.50;;
53961;SDS011;39868;53.398;6.564;2024-01-10T10:08:12;15.70;;;9.13;;
53961;SDS011;39868;53.398;6.564;2024-01-10T10:10:49;15.23;;;8.83;;
53961;SDS011;39868;53.398;6.564;2024-01-10T10:13:26;13.13;;;9.13;;
53961;SDS011;39868;53.398;6.564;2024-01-10T10:15:59;10.27;;;8.83;;
53961;SDS011;39868;53.398;6.564;2024-01-10T10:18:28;9.98;;;8.98;;
53961;SDS011;39868;53.398;6.564;2024-01-10T10:21:06;9.10;;;8.20;;
53961;SDS011;39868;53.398;6.564;2024-01-10T10:23:40;12.13;;;8.88;;
53961;SDS011;39868;53.398;6.564;2024-01-10T10:26:15;11.30;;;10.00;;
53961;SDS011;39868;53.398;6.564;2024-01-10T10:28:48;10.97;;;9.90;;
53961;SDS011;39868;53.398;6.564;2024-01-10T10:31:17;10.73;;;9.50;;
53961;SDS011;39868;53.398;6.564;2024-01-10T10:33:45;10.77;;;9.67;;
53961;SDS011;39868;53.398;6.564;2024-01-10T10:36:15;11.37;;;10.17;;
53961;SDS011;39868;53.398;6.564;2024-01-10T10:38:42;11.50;;;10.30;;
53961;SDS011;39868;53.398;6.564;2024-01-10T10:41:09;13.73;;;12.00;;
53961;SDS011;39868;53.398;6.564;2024-01-10T10:43:38;12.53;;;11.23;;
53961;SDS011;39868;53.398;6.564;2024-01-10T10:46:07;13.27;;;12.00;;
53961;SDS011;39868;53.398;6.564;2024-01-10T10:48:42;12.63;;;11.53;;
53961;SDS011;39868;53.398;6.564;2024-01-10T10:54:08;12.60;;;11.40;;
53961;SDS011;39868;53.398;6.564;2024-01-10T10:56:36;13.90;;;12.60;;
53961;SDS011;39868;53.398;6.564;2024-01-10T10:59:07;12.80;;;11.90;;
53961;SDS011;39868;53.398;6.564;2024-01-10T11:01:36;13.80;;;12.70;;
53961;SDS011;39868;53.398;6.564;2024-01-10T11:04:05;14.07;;;12.63;;
53961;SDS011;39868;53.398;6.564;2024-01-10T11:06:33;13.17;;;12.07;;
53961;SDS011;39868;53.398;6.564;2024-01-10T11:09:03;14.07;;;12.77;;
53961;SDS011;39868;53.398;6.564;2024-01-10T11:15:04;13.67;;;12.47;;
53961;SDS011;39868;53.398;6.564;2024-01-10T11:17:14;13.37;;;12.27;;
53961;SDS011;39868;53.398;6.564;2024-01-10T11:25:22;14.00;;;12.60;;
53961;SDS011;39868;53.398;6.564;2024-01-10T11:27:52;13.60;;;12.53;;
53961;SDS011;39868;53.398;6.564;2024-01-10T11:30:30;13.47;;;12.37;;
53961;SDS011;39868;53.398;6.564;2024-01-10T11:33:22;14.03;;;12.97;;
53961;SDS011;39868;53.398;6.564;2024-01-10T11:36:07;13.80;;;12.70;;
53961;SDS011;39868;53.398;6.564;2024-01-10T11:41:20;14.03;;;12.77;;
53961;SDS011;39868;53.398;6.564;2024-01-10T11:46:47;13.67;;;12.53;;
53961;SDS011;39868;53.398;6.564;2024-01-10T11:49:16;14.43;;;13.33;;
53961;SDS011;39868;53.398;6.564;2024-01-10T11:51:46;14.90;;;13.73;;
53961;SDS011;39868;53.398;6.564;2024-01-10T11:57:16;14.37;;;13.13;;
53961;SDS011;39868;53.398;6.564;2024-01-10T11:59:47;13.83;;;12.73;;
53961;SDS011;39868;53.398;6.564;2024-01-10T12:02:18;14.90;;;13.70;;
53961;SDS011;39868;53.398;6.564;2024-01-10T12:04:46;14.97;;;13.67;;
53961;SDS011;39868;53.398;6.564;2024-01-10T12:07:15;13.73;;;12.53;;
53961;SDS011;39868;53.398;6.564;2024-01-10T12:09:45;14.20;;;13.00;;
53961;SDS011;39868;53.398;6.564;2024-01-10T12:12:13;15.90;;;14.60;;
53961;SDS011;39868;53.398;6.564;2024-01-10T12:14:41;15.10;;;13.70;;
53961;SDS011;39868;53.398;6.564;2024-01-10T12:17:11;14.37;;;13.27;;
53961;SDS011;39868;53.398;6.564;2024-01-10T12:19:38;15.20;;;13.90;;
53961;SDS011;39868;53.398;6.564;2024-01-10T12:22:06;14.93;;;13.63;;
53961;SDS011;39868;53.398;6.564;2024-01-10T12:24:39;14.00;;;13.00;;
53961;SDS011;39868;53.398;6.564;2024-01-10T12:27:15;14.43;;;13.33;;
53961;SDS011;39868;53.398;6.564;2024-01-10T12:29:47;14.50;;;13.30;;
53961;SDS011;39868;53.398;6.564;2024-01-10T12:32:17;15.03;;;13.70;;
53961;SDS011;39868;53.398;6.564;2024-01-10T12:34:57;15.20;;;13.70;;
53961;SDS011;39868;53.398;6.564;2024-01-10T12:37:29;14.80;;;13.33;;
53961;SDS011;39868;53.398;6.564;2024-01-10T12:39:57;14.03;;;13.00;;
53961;SDS011;39868;53.398;6.564;2024-01-10T12:42:24;14.70;;;13.40;;
53961;SDS011;39868;53.398;6.564;2024-01-10T12:44:52;14.80;;;13.60;;
53961;SDS011;39868;53.398;6.564;2024-01-10T12:47:20;15.57;;;13.83;;
53961;SDS011;39868;53.398;6.564;2024-01-10T12:49:49;15.30;;;13.90;;
53961;SDS011;39868;53.398;6.564;2024-01-10T12:52:17;15.70;;;14.40;;
53961;SDS011;39868;53.398;6.564;2024-01-10T12:54:50;14.95;;;13.50;;
53961;SDS011;39868;53.398;6.564;2024-01-10T12:57:19;15.80;;;14.33;;
53961;SDS011;39868;53.398;6.564;2024-01-10T12:59:47;15.63;;;14.23;;
53961;SDS011;39868;53.398;6.564;2024-01-10T13:02:15;16.00;;;14.60;;
53961;SDS011;39868;53.398;6.564;2024-01-10T13:04:42;17.33;;;14.70;;
53961;SDS011;39868;53.398;6.564;2024-01-10T13:07:10;15.37;;;14.00;;
53961;SDS011;39868;53.398;6.564;2024-01-10T13:09:37;16.60;;;14.83;;
53961;SDS011;39868;53.398;6.564;2024-01-10T13:12:06;15.53;;;14.10;;
53961;SDS011;39868;53.398;6.564;2024-01-10T13:14:34;16.10;;;14.50;;
53961;SDS011;39868;53.398;6.564;2024-01-10T13:17:02;16.87;;;15.33;;
53961;SDS011;39868;53.398;6.564;2024-01-10T13:19:31;16.73;;;14.93;;
53961;SDS011;39868;53.398;6.564;2024-01-10T13:21:58;17.50;;;15.80;;
53961;SDS011;39868;53.398;6.564;2024-01-10T13:24:26;17.30;;;15.67;;
53961;SDS011;39868;53.398;6.564;2024-01-10T13:26:53;16.10;;;14.40;;
53961;SDS011;39868;53.398;6.564;2024-01-10T13:29:20;17.10;;;15.30;;
53961;SDS011;39868;53.398;6.564;2024-01-10T13:31:47;16.70;;;14.90;;
53961;SDS011;39868;53.398;6.564;2024-01-10T13:34:16;16.77;;;14.97;;
53961;SDS011;39868;53.398;6.564;2024-01-10T13:36:43;15.58;;;14.00;;
53961;SDS011;39868;53.398;6.564;2024-01-10T13:39:10;15.43;;;13.93;;
53961;SDS011;39868;53.398;6.564;2024-01-10T13:41:42;17.83;;;14.90;;
53961;SDS011;39868;53.398;6.564;2024-01-10T13:44:09;15.93;;;14.33;;
53961;SDS011;39868;53.398;6.564;2024-01-10T13:46:37;16.47;;;14.73;;
53961;SDS011;39868;53.398;6.564;2024-01-10T13:49:04;16.97;;;14.80;;
53961;SDS011;39868;53.398;6.564;2024-01-10T13:51:32;16.20;;;14.60;;
53961;SDS011;39868;53.398;6.564;2024-01-10T13:53:59;15.93;;;14.27;;
53961;SDS011;39868;53.398;6.564;2024-01-10T13:56:26;15.37;;;14.07;;
53961;SDS011;39868;53.398;6.564;2024-01-10T13:58:54;15.53;;;14.00;;
53961;SDS011;39868;53.398;6.564;2024-01-10T14:01:22;15.70;;;14.07;;
53961;SDS011;39868;53.398;6.564;2024-01-10T14:03:49;15.17;;;13.73;;
53961;SDS011;39868;53.398;6.564;2024-01-10T14:06:17;15.10;;;13.67;;
53961;SDS011;39868;53.398;6.564;2024-01-10T14:08:44;15.87;;;14.37;;
53961;SDS011;39868;53.398;6.564;2024-01-10T14:11:14;15.93;;;14.10;;
53961;SDS011;39868;53.398;6.564;2024-01-10T14:13:41;15.90;;;14.30;;
53961;SDS011;39868;53.398;6.564;2024-01-10T14:16:09;16.33;;;14.63;;
53961;SDS011;39868;53.398;6.564;2024-01-10T14:18:37;16.10;;;14.67;;
53961;SDS011;39868;53.398;6.564;2024-01-10T14:21:07;16.37;;;13.30;;
53961;SDS011;39868;53.398;6.564;2024-01-10T14:23:35;15.70;;;14.30;;
53961;SDS011;39868;53.398;6.564;2024-01-10T14:26:02;14.77;;;13.47;;
53961;SDS011;39868;53.398;6.564;2024-01-10T14:28:32;15.33;;;13.60;;
53961;SDS011;39868;53.398;6.564;2024-01-10T14:30:59;14.87;;;13.20;;
53961;SDS011;39868;53.398;6.564;2024-01-10T14:33:44;13.87;;;12.73;;
53961;SDS011;39868;53.398;6.564;2024-01-10T14:36:12;15.90;;;13.83;;
53961;SDS011;39868;53.398;6.564;2024-01-10T14:38:39;15.53;;;13.87;;
53961;SDS011;39868;53.398;6.564;2024-01-10T14:41:07;17.17;;;13.63;;
53961;SDS011;39868;53.398;6.564;2024-01-10T14:43:36;14.30;;;12.80;;
53961;SDS011;39868;53.398;6.564;2024-01-10T14:46:04;15.80;;;13.93;;
53961;SDS011;39868;53.398;6.564;2024-01-10T14:48:34;14.50;;;13.30;;
53961;SDS011;39868;53.398;6.564;2024-01-10T14:51:02;14.03;;;12.87;;
53961;SDS011;39868;53.398;6.564;2024-01-10T14:53:31;14.47;;;12.80;;